createdAt,value
2022-09-18T00:00:37.805Z,-26
2022-09-18T00:02:38.928Z,-26
2022-09-18T00:04:39.869Z,-26.2
2022-09-18T00:06:41.633Z,-26.4
2022-09-18T00:08:43.156Z,-26.2
2022-09-18T00:10:44.807Z,-26.2
2022-09-18T00:14:47.629Z,-26.4
2022-09-18T00:16:49.360Z,-26.3
2022-09-18T00:18:50.462Z,-26.2
2022-09-18T00:20:52.158Z,-25.9
2022-09-18T00:26:56.057Z,-26.4
2022-09-18T00:28:57.316Z,-26.5
2022-09-18T00:30:58.563Z,-26.5
2022-09-18T00:32:59.530Z,-26.3
2022-09-18T00:35:01.271Z,-26.6
2022-09-18T00:37:02.612Z,-26.6
2022-09-18T00:39:04.467Z,-26.6
2022-09-18T00:41:05.774Z,-26.4
2022-09-18T00:43:07.494Z,-26.7
2022-09-18T00:45:09.232Z,-26.5
2022-09-18T00:47:10.840Z,-26.7
2022-09-18T00:49:11.992Z,-26.6
2022-09-18T00:51:13.635Z,-26.5
2022-09-18T00:53:14.920Z,-26.7
2022-09-18T00:55:16.729Z,-26.6
2022-09-18T00:57:18.038Z,-26.5
2022-09-18T00:59:19.196Z,-26.8
2022-09-18T01:01:20.728Z,-26.6
2022-09-18T01:03:22.538Z,-26.8
2022-09-18T01:05:24.376Z,-26.4
2022-09-18T01:09:28.751Z,-26.3
2022-09-18T01:11:28.230Z,-26.6
2022-09-18T01:13:29.744Z,-26.7
2022-09-18T01:15:31.441Z,-26.7
2022-09-18T01:17:33.265Z,-26.7
2022-09-18T01:19:34.520Z,-26.7
2022-09-18T01:21:36.235Z,-26.7
2022-09-18T01:23:37.435Z,-26.8
2022-09-18T01:25:39.275Z,-26.5
2022-09-18T01:27:40.353Z,-26.7
2022-09-18T01:29:42.114Z,-26.8
2022-09-18T01:31:43.712Z,-26.3
2022-09-18T01:33:45.253Z,-26.6
2022-09-18T01:35:46.986Z,-26.7
2022-09-18T01:37:48.453Z,-26.5
2022-09-18T01:39:49.842Z,-26.4
2022-09-18T01:41:51.600Z,-26.4
2022-09-18T01:43:53.358Z,-26.3
2022-09-18T01:45:54.809Z,-26.5
2022-09-18T01:47:56.129Z,-26.4
2022-09-18T01:49:57.127Z,-26.5
2022-09-18T01:51:58.525Z,-26.3
2022-09-18T01:56:01.487Z,-26.2
2022-09-18T01:58:03.382Z,-26.3
2022-09-18T02:00:05.097Z,-25.9
2022-09-18T02:02:06.513Z,-26.1
2022-09-18T02:04:08.273Z,-26.1
2022-09-18T02:06:09.684Z,-25.8
2022-09-18T02:08:11.183Z,-26.1
2022-09-18T02:12:14.169Z,-26.2
2022-09-18T02:14:15.712Z,-26.2
2022-09-18T02:16:17.446Z,-26.2
2022-09-18T02:18:18.948Z,-26
2022-09-18T02:20:20.275Z,-26
2022-09-18T02:22:21.433Z,-25.9
2022-09-18T02:24:23.057Z,-26.2
2022-09-18T02:26:24.038Z,-25.9
2022-09-18T02:28:25.027Z,-25.9
2022-09-18T02:30:26.367Z,-25.8
2022-09-18T02:32:27.620Z,-26
2022-09-18T02:34:28.895Z,-26
2022-09-18T02:36:30.613Z,-25.6
2022-09-18T02:40:33.938Z,-25.6
2022-09-18T02:44:36.822Z,-26
2022-09-18T02:46:38.718Z,-25.8
2022-09-18T02:48:40.268Z,-25.8
2022-09-18T02:50:41.522Z,-26
2022-09-18T02:52:43.294Z,-25.6
2022-09-18T02:54:44.380Z,-25.6
2022-09-18T02:56:46.326Z,-25.9
2022-09-18T02:58:47.432Z,-25.8
2022-09-18T03:00:48.926Z,-25.7
2022-09-18T03:06:53.767Z,-25.8
2022-09-18T03:08:55.443Z,-25.8
2022-09-18T03:10:56.884Z,-25.7
2022-09-18T03:12:58.268Z,-25.7
2022-09-18T03:14:59.226Z,-25.8
2022-09-18T03:17:00.502Z,-26
2022-09-18T03:21:03.760Z,-25.9
2022-09-18T03:23:05.179Z,-26.1
2022-09-18T03:27:08.101Z,-25.9
2022-09-18T03:31:10.656Z,-25.7
2022-09-18T03:33:11.915Z,-26.2
2022-09-18T03:35:12.948Z,-26.2
2022-09-18T03:37:14.317Z,-26.3
2022-09-18T03:39:16.293Z,-25.9
2022-09-18T03:41:16.738Z,-26.2
2022-09-18T03:43:17.727Z,-26.1
2022-09-18T03:45:18.807Z,-26.1
2022-09-18T03:47:19.765Z,-26.3
2022-09-18T03:49:21.013Z,-26.1
2022-09-18T03:51:22.754Z,-26.4
2022-09-18T03:53:24.006Z,-26.2
2022-09-18T03:55:25.277Z,-26.1
2022-09-18T03:57:26.606Z,-26.3
2022-09-18T03:59:27.933Z,-26.1
2022-09-18T04:01:29.313Z,-26.4
2022-09-18T04:03:31.082Z,-26
2022-09-18T04:05:32.979Z,-26.1
2022-09-18T04:07:34.319Z,-26.3
2022-09-18T04:09:35.498Z,-26.5
2022-09-18T04:11:36.647Z,-26.2
2022-09-18T04:13:38.084Z,-26.2
2022-09-18T04:15:39.421Z,-26.5
2022-09-18T04:17:41.326Z,-26.2
2022-09-18T04:19:42.908Z,-26.2
2022-09-18T04:21:43.878Z,-26.4
2022-09-18T04:23:45.475Z,-26.3
2022-09-18T04:25:46.773Z,-26.4
2022-09-18T04:31:51.721Z,-26.6
2022-09-18T04:33:53.296Z,-26.3
2022-09-18T04:35:54.319Z,-26.3
2022-09-18T04:37:55.973Z,-26.3
2022-09-18T04:39:57.085Z,-26.6
2022-09-18T04:41:58.722Z,-26.7
2022-09-18T04:48:46.677Z,-26.6
2022-09-18T04:50:47.855Z,-26.5
2022-09-18T04:54:50.500Z,-26.8
2022-09-18T04:58:53.153Z,-26.9
2022-09-18T05:00:54.253Z,-27.1
2022-09-18T05:02:55.563Z,-27.1
2022-09-18T05:04:56.800Z,-27
2022-09-18T05:11:02.321Z,-25.8
2022-09-18T05:13:03.841Z,-25.5
2022-09-18T05:15:05.362Z,-25.5
2022-09-18T05:17:06.899Z,-25.6
2022-09-18T05:19:08.195Z,-25.3
2022-09-18T05:21:09.898Z,-25.5
2022-09-18T05:23:11.817Z,-25.7
2022-09-18T05:25:13.163Z,-25.6
2022-09-18T05:27:14.739Z,-25.5
2022-09-18T05:29:16.456Z,-25.5
2022-09-18T05:31:17.493Z,-25.6
2022-09-18T05:33:18.962Z,-25.8
2022-09-18T05:35:20.540Z,-25.5
2022-09-18T05:37:22.209Z,-25.6
2022-09-18T05:39:23.180Z,-25.5
2022-09-18T05:41:24.800Z,-25.8
2022-09-18T05:43:25.821Z,-25.6
2022-09-18T05:47:28.724Z,-25.6
2022-09-18T05:49:30.338Z,-25.6
2022-09-18T05:51:31.498Z,-25.4
2022-09-18T05:53:32.463Z,-25.4
2022-09-18T05:55:33.945Z,-25.5
2022-09-18T05:57:35.229Z,-25.4
2022-09-18T05:59:36.795Z,-25.6
2022-09-18T06:01:38.042Z,-25.4
2022-09-18T06:03:39.054Z,-25.5
2022-09-18T06:05:40.262Z,-25.5
2022-09-18T06:07:41.346Z,-25.5
2022-09-18T06:09:42.814Z,-25.5
2022-09-18T06:11:44.106Z,-25.6
2022-09-18T06:13:45.323Z,-25.6
2022-09-18T06:15:47.060Z,-25.6
2022-09-18T06:17:48.703Z,-25.2
2022-09-18T06:19:50.260Z,-25.8
2022-09-18T06:23:53.065Z,-25.7
2022-09-18T06:25:54.102Z,-25.3
2022-09-18T06:27:55.356Z,-25.6
2022-09-18T06:29:56.381Z,-25.4
2022-09-18T06:36:00.131Z,-25.4
2022-09-18T06:38:01.973Z,-25.4
2022-09-18T06:40:03.454Z,-25.4
2022-09-18T06:42:04.748Z,-25.5
2022-09-18T06:44:05.938Z,-25.4
2022-09-18T06:46:06.843Z,-25.5
2022-09-18T06:48:08.196Z,-25.5
2022-09-18T06:50:09.741Z,-25.3
2022-09-18T06:52:10.737Z,-25.6
2022-09-18T06:54:12.356Z,-25.7
2022-09-18T06:56:13.484Z,-25.4
2022-09-18T06:58:14.427Z,-25.5
2022-09-18T07:00:15.622Z,-25.6
2022-09-18T07:02:19.522Z,-25.5
2022-09-18T07:04:18.565Z,-25.5
2022-09-18T07:06:19.879Z,-25.6
2022-09-18T07:08:21.597Z,-25.6
2022-09-18T07:10:22.909Z,-25.4
2022-09-18T07:12:24.826Z,-25.6
2022-09-18T07:14:26.739Z,-25.4
2022-09-18T07:16:28.286Z,-25.4
2022-09-18T07:18:29.823Z,-25.5
2022-09-18T07:22:33.551Z,-27.2
2022-09-18T07:24:35.365Z,-26.9
2022-09-18T07:26:37.234Z,-27.2
2022-09-18T07:28:38.510Z,-26.7
2022-09-18T07:34:43.748Z,-14.1
2022-09-18T07:36:45.492Z,-10.4
2022-09-18T07:38:46.717Z,-9.39
2022-09-18T07:40:47.866Z,-19.5
2022-09-18T07:42:48.975Z,-10.2
2022-09-18T07:44:50.711Z,-17
2022-09-18T07:46:52.483Z,-24.4
2022-09-18T07:48:53.974Z,-26
2022-09-18T07:50:55.249Z,-25.9
2022-09-18T07:52:56.347Z,-23.7
2022-09-18T07:54:57.315Z,-22.8
2022-09-18T07:56:58.526Z,-10.6
2022-09-18T07:59:00.162Z,-8.8
2022-09-18T08:01:01.392Z,-8.8
2022-09-18T08:03:02.550Z,-0.3
2022-09-18T08:05:03.903Z,2.8
2022-09-18T08:07:05.174Z,7.7
2022-09-18T08:11:08.507Z,6.8
2022-09-18T08:13:10.284Z,10.6
2022-09-18T08:15:11.183Z,18.2
2022-09-18T08:17:12.388Z,20.9
2022-09-18T08:19:14.294Z,28.6
2022-09-18T08:21:16.038Z,37.3
2022-09-18T08:23:17.828Z,28.8
2022-09-18T08:25:19.373Z,34.5
2022-09-18T08:27:20.945Z,17.1
2022-09-18T08:33:25.046Z,18.2
2022-09-18T08:35:26.739Z,27.6
2022-09-18T08:37:27.806Z,23.8
2022-09-18T08:39:29.100Z,25.8
2022-09-18T08:41:30.133Z,24.5
2022-09-18T08:49:35.940Z,30.2
2022-09-18T08:51:37.424Z,25.5
2022-09-18T08:53:39.186Z,21.3
2022-09-18T08:59:43.430Z,25.5
2022-09-18T09:01:44.454Z,26.2
2022-09-18T09:03:45.897Z,29.5
2022-09-18T09:05:47.463Z,29.4
2022-09-18T09:07:48.406Z,25.3
2022-09-18T09:09:49.810Z,20.6
2022-09-18T09:13:52.488Z,7.1
2022-09-18T09:15:53.994Z,-1.9
2022-09-18T09:17:55.176Z,4.19
2022-09-18T09:21:57.610Z,-1.1
2022-09-18T09:23:59.081Z,7.4
2022-09-18T09:26:00.673Z,15.9
2022-09-18T09:28:01.834Z,-5.6
2022-09-18T09:30:03.011Z,-4.9
2022-09-18T09:32:04.778Z,-1.1
2022-09-18T09:34:06.352Z,1.3
2022-09-18T09:36:07.470Z,25.4
2022-09-18T09:38:08.803Z,31.8
2022-09-18T09:40:10.596Z,26
2022-09-18T09:42:11.582Z,20
2022-09-18T09:46:16.022Z,3.8
2022-09-18T09:48:14.809Z,18.29
2022-09-18T09:50:16.649Z,28.3
2022-09-18T09:52:17.889Z,71.69
2022-09-18T09:58:22.067Z,67.9
2022-09-18T10:00:23.900Z,66.1
2022-09-18T10:02:25.314Z,65.3
2022-09-18T10:04:26.199Z,62.4
2022-09-18T10:06:27.994Z,60.7
2022-09-18T10:08:29.675Z,60.4
2022-09-18T10:10:30.901Z,58.3
2022-09-18T10:12:31.903Z,10.1
2022-09-18T10:14:33.571Z,5.1
2022-09-18T10:16:35.445Z,8.2
2022-09-18T10:18:37.046Z,19.79
2022-09-18T10:20:38.162Z,57.1
2022-09-18T10:22:39.895Z,55.6
2022-09-18T10:24:41.576Z,53.6
2022-09-18T10:26:42.952Z,52
2022-09-18T10:28:43.987Z,49.8
2022-09-18T10:30:45.363Z,48.4
2022-09-18T10:34:47.809Z,-0.9
2022-09-18T10:36:48.887Z,47.2
2022-09-18T10:38:50.420Z,44
2022-09-18T10:40:51.608Z,42
2022-09-18T10:42:52.909Z,39.7
2022-09-18T10:44:57.913Z,41.6
2022-09-18T10:46:56.126Z,-2.8
2022-09-18T10:48:57.179Z,-9.3
2022-09-18T10:50:58.896Z,5.1
2022-09-18T10:57:04.477Z,-11
2022-09-18T10:59:06.140Z,-10.5
2022-09-18T11:01:07.662Z,-16.29
2022-09-18T11:03:09.148Z,33
2022-09-18T11:05:10.571Z,32.9
2022-09-18T11:07:11.863Z,30.3
2022-09-18T11:09:12.961Z,29.5
2022-09-18T11:11:14.764Z,26.8
2022-09-18T11:13:16.503Z,25.4
2022-09-18T11:15:17.910Z,24.2
2022-09-18T11:17:19.643Z,22.9
2022-09-18T11:19:21.270Z,21.9
2022-09-18T11:21:23.068Z,23
2022-09-18T11:23:24.489Z,17.6
2022-09-18T11:27:27.568Z,18.5
2022-09-18T11:32:13.955Z,16.29
2022-09-18T11:34:15.086Z,15.2
2022-09-18T11:38:17.895Z,12.7
2022-09-18T11:40:19.332Z,13.3
2022-09-18T11:42:20.733Z,13.4
2022-09-18T11:44:21.636Z,10.2
2022-09-18T11:46:22.675Z,8.1
2022-09-18T11:48:23.901Z,8.8
2022-09-18T11:50:25.637Z,8.7
2022-09-18T11:52:27.312Z,9
2022-09-18T11:54:28.915Z,-25.4
2022-09-18T11:56:30.040Z,-25.4
2022-09-18T11:58:31.742Z,-25.3
2022-09-18T12:00:33.508Z,-25.5
2022-09-18T12:04:35.979Z,-25.4
2022-09-18T12:06:37.308Z,-25.5
2022-09-18T12:08:36.910Z,-25.6
2022-09-18T12:10:38.029Z,-25.3
2022-09-18T12:12:38.999Z,-25.3
2022-09-18T12:16:41.521Z,-25.6
2022-09-18T12:18:42.926Z,-25.5
2022-09-18T12:20:44.312Z,-25.5
2022-09-18T12:22:45.429Z,-25.3
2022-09-18T12:24:46.468Z,-25.5
2022-09-18T12:26:48.068Z,-25.7
2022-09-18T12:28:49.410Z,-25.4
2022-09-18T12:30:51.024Z,-25.4
2022-09-18T12:32:52.192Z,-25.3
2022-09-18T12:34:53.563Z,-25.7
2022-09-18T12:36:54.696Z,-25.4
2022-09-18T12:38:57.116Z,-25.5
2022-09-18T12:40:58.135Z,-25.6
2022-09-18T12:42:59.592Z,-25.3
2022-09-18T12:45:01.280Z,-25.8
2022-09-18T12:47:02.428Z,-25.5
2022-09-18T12:49:03.948Z,-25.4
2022-09-18T12:53:09.327Z,-25.6
2022-09-18T12:55:09.535Z,-25.4
2022-09-18T12:59:12.478Z,-25.5
2022-09-18T13:01:14.175Z,-25.6
2022-09-18T13:03:15.515Z,-25.4
2022-09-18T13:05:16.988Z,-25.5
2022-09-18T13:07:18.579Z,-25.2
2022-09-18T13:09:23.947Z,-25.7
2022-09-18T13:11:21.764Z,-25.5
2022-09-18T13:13:23.432Z,-25.1
2022-09-18T13:15:25.112Z,-25.5
2022-09-18T13:17:27.484Z,-25.7
2022-09-18T13:19:29.335Z,-25.5
2022-09-18T13:21:30.636Z,-25.7
2022-09-18T13:23:31.919Z,-25.3
2022-09-18T13:25:33.534Z,-25.4
2022-09-18T13:27:35.058Z,-25.6
2022-09-18T13:29:36.244Z,-25.8
2022-09-18T13:31:37.323Z,-25.3
2022-09-18T13:33:38.394Z,-25.6
2022-09-18T13:35:39.879Z,-25.5
2022-09-18T13:37:41.454Z,-25.7
2022-09-18T13:40:00.636Z,-25.5
2022-09-18T13:41:43.541Z,-25.6
2022-09-18T13:43:44.851Z,-25.5
2022-09-18T13:45:46.448Z,-25.7
2022-09-18T13:47:48.291Z,-25.3
2022-09-18T13:49:50.109Z,-25.3
2022-09-18T13:51:51.614Z,-25.6
2022-09-18T13:53:53.403Z,-25.4
2022-09-18T13:55:55.102Z,-25.5
2022-09-18T13:57:57.259Z,-25.5
2022-09-18T13:59:58.706Z,-25.5
2022-09-18T14:01:59.774Z,-25.2
2022-09-18T14:04:01.336Z,-25.6
2022-09-18T14:06:02.754Z,-25.4
2022-09-18T14:08:03.653Z,-25.3
2022-09-18T14:10:06.102Z,-25.5
2022-09-18T14:12:07.619Z,-25.2
2022-09-18T14:14:09.497Z,-25.3
2022-09-18T14:16:11.317Z,-25.3
2022-09-18T14:18:13.123Z,-25.6
2022-09-18T14:20:14.525Z,-25.4
2022-09-18T14:22:16.020Z,-25.4
2022-09-18T14:24:16.972Z,-25.6
2022-09-18T14:26:18.666Z,-25.5
2022-09-18T14:28:20.511Z,-25.6
2022-09-18T14:30:21.703Z,-25.5
2022-09-18T14:34:24.958Z,-25.3
2022-09-18T14:38:28.246Z,-25.5
2022-09-18T14:40:29.411Z,-25.3
2022-09-18T14:42:32.993Z,-25.5
2022-09-18T14:44:31.998Z,-25.5
2022-09-18T14:46:33.613Z,-25.5
2022-09-18T14:50:37.247Z,-25.5
2022-09-18T14:52:38.202Z,-25.3
2022-09-18T14:54:41.102Z,-25.3
2022-09-18T14:56:41.724Z,-25.5
2022-09-18T14:58:42.943Z,-25.6
2022-09-18T15:00:44.676Z,-25.4
2022-09-18T15:02:46.031Z,-25.5
2022-09-18T15:04:47.247Z,-25.4
2022-09-18T15:06:48.596Z,-25.4
2022-09-18T15:10:51.407Z,-25.5
2022-09-18T15:12:52.496Z,-25.5
2022-09-18T15:14:54.095Z,-25.4
2022-09-18T15:16:55.992Z,-25.4
2022-09-18T15:20:58.173Z,-25.6
2022-09-18T15:22:59.246Z,-25.5
2022-09-18T15:25:00.469Z,-25.3
2022-09-18T15:27:02.191Z,-25.5
2022-09-18T15:31:05.285Z,-25.3
2022-09-18T15:33:06.291Z,-25.5
2022-09-18T15:35:07.822Z,-25.6
2022-09-18T15:37:09.568Z,-25.5
2022-09-18T15:39:11.385Z,-25.7
2022-09-18T15:41:12.475Z,-25.7
2022-09-18T15:43:13.505Z,-25.5
2022-09-18T15:45:15.252Z,-25.5
2022-09-18T15:49:18.747Z,-25.5
2022-09-18T15:51:19.740Z,-25.6
2022-09-18T15:53:20.874Z,-25.4
2022-09-18T15:55:21.999Z,-25.6
2022-09-18T15:57:23.661Z,-25.2
2022-09-18T15:59:25.579Z,-25.5
2022-09-18T16:03:28.591Z,-25.4
2022-09-18T16:05:29.872Z,-25.3
2022-09-18T16:07:31.238Z,-25.3
2022-09-18T16:09:33.513Z,-25.3
2022-09-18T16:11:34.594Z,-25.7
2022-09-18T16:13:36.150Z,-25.1
2022-09-18T16:15:37.740Z,-25.5
2022-09-18T16:17:39.196Z,-25.4
2022-09-18T16:19:40.804Z,-25.3
2022-09-18T16:21:42.116Z,-25.2
2022-09-18T16:23:43.884Z,-25.5
2022-09-18T16:25:45.367Z,-25.5
2022-09-18T16:27:47.098Z,-25.4
2022-09-18T16:29:48.595Z,-25.3
2022-09-18T16:31:50.009Z,-25.6
2022-09-18T16:35:53.250Z,-25.4
2022-09-18T16:37:54.991Z,-25.4
2022-09-18T16:41:57.779Z,-25.6
2022-09-18T16:48:02.410Z,-25.5
2022-09-18T16:50:03.542Z,-25.4
2022-09-18T16:52:05.140Z,-25.4
2022-09-18T16:54:06.133Z,-25.6
2022-09-18T16:56:07.116Z,-25.3
2022-09-18T16:58:08.809Z,-25.7
2022-09-18T17:00:09.814Z,-25.4
2022-09-18T17:02:11.675Z,-25.3
2022-09-18T17:04:12.772Z,-25.5
2022-09-18T17:06:18.294Z,-25.7
2022-09-18T17:08:15.502Z,-25.7
2022-09-18T17:10:17.269Z,-25.5
2022-09-18T17:12:18.540Z,-25.4
2022-09-18T17:14:19.969Z,-25.5
2022-09-18T17:16:35.453Z,-25.6
2022-09-18T17:18:22.624Z,-25.5
2022-09-18T17:20:23.790Z,-25.6
2022-09-18T17:22:25.370Z,-25.4
2022-09-18T17:24:27.329Z,-25.3
2022-09-18T17:30:31.548Z,-25.5
2022-09-18T17:32:32.620Z,-25.3
2022-09-18T17:34:33.602Z,-25.3
2022-09-18T17:36:35.242Z,-25.4
2022-09-18T17:38:36.597Z,-25.5
2022-09-18T17:40:37.802Z,-25.5
2022-09-18T17:42:39.507Z,-25.3
2022-09-18T17:44:40.845Z,-25.3
2022-09-18T17:46:42.371Z,-25.4
2022-09-18T17:48:43.307Z,-25.5
2022-09-18T17:50:44.478Z,-25.5
2022-09-18T17:52:45.397Z,-25.6
2022-09-18T17:54:47.323Z,-25.4
2022-09-18T17:56:48.243Z,-25.6
2022-09-18T17:58:49.436Z,-25.3
2022-09-18T18:00:50.969Z,-25.3
2022-09-18T18:02:51.875Z,-25.3
2022-09-18T18:04:53.723Z,-25.4
2022-09-18T18:06:55.101Z,-25.3
2022-09-18T18:12:59.718Z,-25.7
2022-09-18T18:13:43.554Z,-25.3
2022-09-18T18:17:46.387Z,-25.5
2022-09-18T18:19:47.774Z,-25.8
2022-09-18T18:21:49.508Z,-25.2
2022-09-18T18:23:51.357Z,-25.6
2022-09-18T18:25:52.574Z,-25.5
2022-09-18T18:27:53.937Z,-25.5
2022-09-18T18:29:55.564Z,-25.3
2022-09-18T18:31:57.360Z,-25.4
2022-09-18T18:33:58.776Z,-25.6
2022-09-18T18:36:00.118Z,-25.6
2022-09-18T18:38:01.594Z,-25.6
2022-09-18T18:40:02.618Z,-25.5
2022-09-18T18:42:04.121Z,-25.7
2022-09-18T18:44:05.803Z,-25.4
2022-09-18T18:46:07.617Z,-25.7
2022-09-18T18:48:09.950Z,-25.5
2022-09-18T18:50:11.028Z,-25.4
2022-09-18T18:54:13.235Z,-25.7
2022-09-18T18:56:14.708Z,-25.6
2022-09-18T18:58:16.511Z,-25.7
2022-09-18T19:00:18.334Z,-25.6
2022-09-18T19:06:22.235Z,-25.4
2022-09-18T19:08:23.236Z,-25.7
2022-09-18T19:10:24.711Z,-25.4
2022-09-18T19:12:25.833Z,-25.5
2022-09-18T19:14:26.938Z,-25.7
2022-09-18T19:16:28.078Z,-25.5
2022-09-18T19:20:31.483Z,-25.5
2022-09-18T19:22:33.038Z,-25.7
2022-09-18T19:24:34.655Z,-25.4
2022-09-18T19:26:36.082Z,-25.6
2022-09-18T19:28:37.890Z,-25.8
2022-09-18T19:30:39.221Z,-25.5
2022-09-18T19:32:40.194Z,-25.8
2022-09-18T19:34:42.053Z,-25.6
2022-09-18T19:36:43.968Z,-25.8
2022-09-18T19:38:45.719Z,-25.6
2022-09-18T19:40:46.938Z,-25.4
2022-09-18T19:42:48.423Z,-25.5
2022-09-18T19:44:49.575Z,-25.6
2022-09-18T19:46:50.684Z,-25.7
2022-09-18T19:48:51.730Z,-25.7
2022-09-18T19:50:53.095Z,-25.4
2022-09-18T19:52:54.114Z,-25.8
2022-09-18T19:54:55.270Z,-25.5
2022-09-18T19:56:56.745Z,-25.7
2022-09-18T19:58:57.868Z,-25.5
2022-09-18T20:05:02.183Z,-25.8
2022-09-18T20:07:03.459Z,-25.6
2022-09-18T20:09:04.470Z,-25.3
2022-09-18T20:11:06.068Z,-25.7
2022-09-18T20:13:07.151Z,-25.4
2022-09-18T20:15:08.237Z,-25.7
2022-09-18T20:19:11.155Z,-25.6
2022-09-18T20:21:12.706Z,-25.8
2022-09-18T20:23:14.402Z,-25.4
2022-09-18T20:25:15.710Z,-25.7
2022-09-18T20:29:18.955Z,-25.7
2022-09-18T20:31:20.168Z,-25.6
2022-09-18T20:33:21.136Z,-25.6
2022-09-18T20:35:22.642Z,-25.8
2022-09-18T20:37:23.810Z,-26
2022-09-18T20:39:25.587Z,-25.8
2022-09-18T20:41:27.050Z,-25.9
2022-09-18T20:43:28.153Z,-25.5
2022-09-18T20:45:29.169Z,-25.6
2022-09-18T20:47:31.008Z,-25.7
2022-09-18T20:49:32.930Z,-25.6
2022-09-18T20:51:34.609Z,-25.6
2022-09-18T20:53:35.766Z,-26
2022-09-18T20:55:37.142Z,-25.8
2022-09-18T20:57:38.146Z,-26.1
2022-09-18T20:59:39.927Z,-25.9
2022-09-18T21:01:40.907Z,-25.8
2022-09-18T21:03:42.212Z,-25.9
2022-09-18T21:05:43.754Z,-25.9
2022-09-18T21:07:53.191Z,-25.5
2022-09-18T21:09:46.269Z,-25.7
2022-09-18T21:11:47.910Z,-25.7
2022-09-18T21:13:49.257Z,-25.7
2022-09-18T21:17:52.479Z,-26
2022-09-18T21:19:53.841Z,-25.7
2022-09-18T21:21:55.585Z,-25.9
2022-09-18T21:23:56.689Z,-25.8
2022-09-18T21:30:01.031Z,-26
2022-09-18T21:32:02.912Z,-26
2022-09-18T21:34:03.960Z,-26.1
2022-09-18T21:36:05.847Z,-26
2022-09-18T21:38:10.233Z,-25.9
2022-09-18T21:40:09.004Z,-25.6
2022-09-18T21:42:10.243Z,-25.8
2022-09-18T21:44:11.728Z,-26.1
2022-09-18T21:46:13.166Z,-25.9
2022-09-18T21:48:14.357Z,-26
2022-09-18T21:50:16.153Z,-26
2022-09-18T21:52:17.597Z,-26.3
2022-09-18T21:54:18.923Z,-26.1
2022-09-18T21:56:20.485Z,-26.4
2022-09-18T21:58:22.052Z,-26.2
2022-09-18T22:00:23.142Z,-26.5
2022-09-18T22:02:25.047Z,-26.4
2022-09-18T22:04:26.089Z,-26.6
2022-09-18T22:06:27.952Z,-26.3
2022-09-18T22:08:29.270Z,-26.7
2022-09-18T22:10:30.537Z,-26.5
2022-09-18T22:12:32.350Z,-26.8
2022-09-18T22:14:33.702Z,-26.5
2022-09-18T22:16:35.460Z,-26.6
2022-09-18T22:18:36.626Z,-26.8
2022-09-18T22:20:38.078Z,-26.8
2022-09-18T22:22:39.922Z,-26.9
2022-09-18T22:26:42.863Z,-26.9
2022-09-18T22:28:44.088Z,-26.7
2022-09-18T22:30:45.108Z,-26.9
2022-09-18T22:32:46.280Z,-27.1
2022-09-18T22:34:48.180Z,-26.9
2022-09-18T22:36:49.480Z,-27.1
2022-09-18T22:38:50.789Z,-27
2022-09-18T22:40:52.453Z,-27
2022-09-18T22:42:53.977Z,-27
2022-09-18T22:44:55.878Z,-27.1
2022-09-18T22:48:58.498Z,-26.8
2022-09-18T22:50:59.648Z,-26.9
2022-09-18T22:53:00.725Z,-26.9
2022-09-18T22:55:01.980Z,-26.8
2022-09-18T22:59:04.880Z,-27.1
2022-09-18T23:01:06.481Z,-26.9
2022-09-18T23:03:07.520Z,-27
2022-09-18T23:05:09.425Z,-27.1
2022-09-18T23:11:13.381Z,-27.1
2022-09-18T23:13:15.009Z,-27
2022-09-18T23:15:16.132Z,-27
2022-09-18T23:17:17.551Z,-27.3
2022-09-18T23:19:18.929Z,-27.1
2022-09-18T23:21:20.661Z,-25.5
2022-09-18T23:23:21.989Z,-25.6
2022-09-18T23:27:24.942Z,-25.4
2022-09-18T23:31:27.414Z,-26.9
2022-09-18T23:33:29.080Z,-26.9
2022-09-18T23:35:30.448Z,-25.6
2022-09-18T23:37:32.237Z,-25.6
2022-09-18T23:43:36.579Z,-25.6
2022-09-18T23:45:37.895Z,-25.5
2022-09-18T23:47:38.956Z,-25.4
2022-09-18T23:49:40.707Z,-25.5
2022-09-18T23:51:41.950Z,-25.7
2022-09-18T23:53:43.192Z,-25.7
2022-09-18T23:55:44.571Z,-25.5
2022-09-18T23:57:45.860Z,-25.5
2022-09-18T23:59:47.824Z,-25.7
